createdAt,value
2022-11-17T08:03:54.460Z,3.45
2022-11-17T08:06:24.144Z,2.60
2022-11-17T08:08:52.211Z,2.60
2022-11-17T08:11:20.244Z,2.60
2022-11-17T08:13:50.333Z,2.70
2022-11-17T08:16:18.870Z,2.70
2022-11-17T08:18:52.177Z,2.80
2022-11-17T08:21:20.809Z,3.22
2022-11-17T08:23:53.448Z,2.92
2022-11-17T08:26:23.929Z,2.63
2022-11-17T08:28:57.926Z,2.60
2022-11-17T08:31:26.523Z,2.88
2022-11-17T08:33:55.954Z,2.90
2022-11-17T08:36:24.284Z,3.03
2022-11-17T08:38:52.585Z,2.33
2022-11-17T08:41:21.938Z,2.72
2022-11-17T08:43:51.620Z,2.70
2022-11-17T08:46:19.971Z,2.60
2022-11-17T08:48:52.238Z,3.00
2022-11-17T08:51:23.982Z,2.47
2022-11-17T08:53:52.070Z,2.50
2022-11-17T08:56:20.041Z,2.85
2022-11-17T08:58:48.373Z,2.75
2022-11-17T09:01:17.330Z,2.70
2022-11-17T09:03:47.347Z,2.47
2022-11-17T09:06:17.134Z,2.45
2022-11-17T09:08:56.202Z,2.60
2022-11-17T09:11:24.728Z,2.50
2022-11-17T09:13:52.658Z,2.30
2022-11-17T09:16:20.798Z,2.58
2022-11-17T09:18:48.793Z,2.67
2022-11-17T09:21:17.251Z,2.65
2022-11-17T09:23:45.404Z,2.78
2022-11-17T09:26:15.293Z,2.90
2022-11-17T09:28:44.557Z,2.30
2022-11-17T09:31:18.212Z,2.53
2022-11-17T09:33:46.763Z,2.38
2022-11-17T09:36:16.363Z,2.38
2022-11-17T09:38:45.350Z,2.80
2022-11-17T09:41:16.264Z,2.80
2022-11-17T09:44:28.701Z,2.63
2022-11-17T09:47:18.469Z,3.08
2022-11-17T09:50:04.748Z,2.80
2022-11-17T09:52:39.556Z,2.65
2022-11-17T09:55:34.098Z,2.60
2022-11-17T09:58:13.870Z,3.15
2022-11-17T10:00:47.488Z,2.70
2022-11-17T10:03:43.602Z,2.63
2022-11-17T10:06:33.851Z,2.70
2022-11-17T10:09:36.222Z,2.63
2022-11-17T10:12:23.676Z,2.75
2022-11-17T10:14:54.686Z,2.85
2022-11-17T10:17:22.867Z,2.47
2022-11-17T10:19:50.772Z,3.15
2022-11-17T10:22:48.738Z,2.67
2022-11-17T10:25:37.972Z,2.53
2022-11-17T10:28:24.231Z,2.67
2022-11-17T10:31:04.244Z,2.70
2022-11-17T10:33:39.056Z,2.55
2022-11-17T10:36:29.158Z,2.50
2022-11-17T10:39:01.540Z,2.60
2022-11-17T10:41:42.291Z,2.72
2022-11-17T10:44:13.062Z,2.70
2022-11-17T10:47:02.006Z,2.80
2022-11-17T10:49:36.447Z,2.90
2022-11-17T10:52:16.656Z,2.85
2022-11-17T10:54:45.068Z,2.90
2022-11-17T10:57:20.619Z,3.03
2022-11-17T10:59:59.344Z,2.97
2022-11-17T11:02:39.402Z,2.67
2022-11-17T11:05:10.533Z,2.90
2022-11-17T11:07:39.059Z,3.20
2022-11-17T11:10:24.045Z,2.80
2022-11-17T11:12:59.485Z,2.72
2022-11-17T11:15:36.371Z,2.80
2022-11-17T11:18:15.883Z,2.88
2022-11-17T11:21:09.022Z,2.60
2022-11-17T11:24:14.004Z,2.80
2022-11-17T11:26:47.944Z,2.78
2022-11-17T11:29:37.220Z,2.95
2022-11-17T11:32:16.764Z,3.10
2022-11-17T11:35:17.010Z,3.00
2022-11-17T11:38:12.145Z,2.63
2022-11-17T11:40:42.819Z,2.70
2022-11-17T11:43:51.819Z,3.00
2022-11-17T11:46:29.958Z,2.70
2022-11-17T11:49:05.279Z,2.53
2022-11-17T11:51:38.379Z,2.78
2022-11-17T11:54:09.851Z,2.85
2022-11-17T11:56:43.271Z,2.38
2022-11-17T11:59:39.694Z,3.03
2022-11-17T12:02:24.357Z,2.72
2022-11-17T12:05:25.368Z,2.53
2022-11-17T12:08:13.648Z,2.90
2022-11-17T12:11:26.730Z,3.20
2022-11-17T12:13:55.427Z,2.28
2022-11-17T12:16:35.370Z,2.83
2022-11-17T12:19:23.660Z,2.63
2022-11-17T12:21:56.184Z,2.90
2022-11-17T12:24:36.898Z,3.08
2022-11-17T12:27:35.875Z,2.60
2022-11-17T12:30:23.512Z,2.47
2022-11-17T12:32:53.290Z,2.75
2022-11-17T12:35:31.340Z,3.25
2022-11-17T12:38:17.217Z,2.80
2022-11-17T12:40:48.145Z,2.85
2022-11-17T12:43:16.323Z,2.65
2022-11-17T12:45:53.453Z,2.92
2022-11-17T12:48:36.184Z,2.75
2022-11-17T12:51:34.876Z,2.63
2022-11-17T12:54:37.798Z,2.30
2022-11-17T12:57:20.399Z,2.67
2022-11-17T13:00:10.117Z,2.40
2022-11-17T13:02:56.336Z,2.53
2022-11-17T13:05:27.769Z,2.50
2022-11-17T13:08:14.078Z,2.55
2022-11-17T13:10:42.266Z,2.50
2022-11-17T13:13:28.405Z,2.30
2022-11-17T13:16:01.567Z,2.55
2022-11-17T13:18:38.837Z,2.55
2022-11-17T13:21:26.821Z,2.97
2022-11-17T13:23:56.045Z,2.30
2022-11-17T13:26:26.814Z,2.42
2022-11-17T13:29:19.745Z,2.58
2022-11-17T13:31:47.883Z,2.50
2022-11-17T13:34:21.505Z,2.17
2022-11-17T13:39:28.748Z,2.20
2022-11-17T13:42:01.333Z,2.13
2022-11-17T13:44:29.752Z,2.45
2022-11-17T13:46:57.732Z,2.20
2022-11-17T13:49:34.711Z,2.22
2022-11-17T13:52:14.380Z,2.20
2022-11-17T13:54:45.810Z,2.33
2022-11-17T13:57:27.335Z,2.20
2022-11-17T13:59:56.425Z,2.10
2022-11-17T14:02:26.277Z,2.20
2022-11-17T14:05:15.359Z,1.95
2022-11-17T14:07:44.908Z,2.08
2022-11-17T14:10:21.816Z,2.00
2022-11-17T14:13:02.008Z,2.15
2022-11-17T14:15:31.668Z,1.98
2022-11-17T14:18:01.749Z,1.88
2022-11-17T14:20:35.378Z,2.55
2022-11-17T14:23:18.053Z,2.15
2022-11-17T14:25:51.588Z,2.20
2022-11-17T14:28:21.715Z,2.10
2022-11-17T14:30:57.592Z,2.10
2022-11-17T14:33:26.365Z,1.73
2022-11-17T14:35:58.685Z,2.25
2022-11-17T14:38:26.628Z,1.90
2022-11-17T14:40:54.761Z,2.03
2022-11-17T14:43:22.999Z,2.30
2022-11-17T14:45:51.341Z,2.30
2022-11-17T14:48:20.446Z,2.78
2022-11-17T14:50:49.040Z,2.03
2022-11-17T14:53:16.987Z,2.10
2022-11-17T14:55:45.081Z,2.22
2022-11-17T14:58:13.133Z,1.90
2022-11-17T15:00:41.212Z,2.20
2022-11-17T15:03:09.188Z,2.03
2022-11-17T15:05:42.873Z,2.13
2022-11-17T15:08:11.057Z,2.20
2022-11-17T15:10:45.922Z,2.30
2022-11-17T15:13:13.840Z,1.88
2022-11-17T15:15:41.854Z,2.50
2022-11-17T15:18:12.826Z,2.47
2022-11-17T15:20:40.894Z,2.20
2022-11-17T15:23:08.958Z,1.90
2022-11-17T15:25:39.233Z,1.98
2022-11-17T15:28:07.581Z,1.80
2022-11-17T15:30:35.660Z,1.95
2022-11-17T15:33:03.743Z,1.85
2022-11-17T15:35:32.010Z,2.28
2022-11-17T15:38:00.061Z,2.10
2022-11-17T15:40:28.115Z,2.05
2022-11-17T15:42:56.673Z,1.77
2022-11-17T15:45:24.972Z,2.20
2022-11-17T15:47:53.072Z,2.10
2022-11-17T15:50:21.076Z,2.20
2022-11-17T15:53:03.566Z,2.20
2022-11-17T15:55:35.400Z,2.20
2022-11-17T15:58:03.688Z,2.40
2022-11-17T16:00:34.028Z,2.25
2022-11-17T16:03:02.614Z,2.00
2022-11-17T16:05:30.812Z,2.00
2022-11-17T16:07:58.750Z,2.08
2022-11-17T16:10:27.596Z,1.90
2022-11-17T16:12:56.591Z,1.88
2022-11-17T16:15:25.079Z,1.92
2022-11-17T16:17:53.654Z,2.30
2022-11-17T16:20:21.746Z,1.85
2022-11-17T16:22:49.851Z,2.03
2022-11-17T16:25:17.901Z,1.73
2022-11-17T16:27:46.015Z,2.25
2022-11-17T16:30:14.075Z,2.08
2022-11-17T16:32:42.259Z,1.90
2022-11-17T16:35:10.352Z,1.70
2022-11-17T16:37:38.420Z,2.10
2022-11-17T16:40:07.121Z,2.13
2022-11-17T16:42:35.182Z,2.10
2022-11-17T16:45:03.690Z,1.90
2022-11-17T16:47:32.575Z,2.20
2022-11-17T16:50:00.581Z,1.90
2022-11-17T16:52:28.642Z,1.83
2022-11-17T16:55:01.760Z,2.10
2022-11-17T16:57:32.622Z,1.90
2022-11-17T17:00:00.861Z,1.50
2022-11-17T17:02:28.983Z,1.90
2022-11-17T17:04:57.138Z,2.00
2022-11-17T17:07:25.210Z,1.90
2022-11-17T17:09:53.256Z,2.15
2022-11-17T17:12:21.828Z,2.13
2022-11-17T17:14:49.865Z,2.50
2022-11-17T17:17:17.993Z,2.28
2022-11-17T17:19:45.869Z,2.13
2022-11-17T17:22:13.831Z,2.17
2022-11-17T17:24:41.855Z,2.38
2022-11-17T17:27:09.866Z,2.03
2022-11-17T17:29:37.975Z,2.25
2022-11-17T17:32:06.118Z,1.80
2022-11-17T17:34:34.106Z,2.30
2022-11-17T17:37:02.192Z,2.15
2022-11-17T17:39:30.406Z,2.30
2022-11-17T17:41:58.448Z,2.42
2022-11-17T17:44:26.552Z,2.13
2022-11-17T17:46:54.669Z,2.40
2022-11-17T17:49:22.633Z,2.10
2022-11-17T17:51:50.729Z,2.10
2022-11-17T17:54:20.854Z,2.40
2022-11-17T17:56:49.111Z,2.47
2022-11-17T17:59:17.524Z,2.00
2022-11-17T18:01:49.798Z,2.30
2022-11-17T18:04:17.927Z,2.00
2022-11-17T18:06:48.234Z,2.30
2022-11-17T18:09:19.831Z,2.50
2022-11-17T18:11:50.494Z,2.25
2022-11-17T18:14:24.494Z,1.85
2022-11-17T18:16:54.126Z,2.60
2022-11-17T18:19:24.781Z,2.20
2022-11-17T18:21:55.231Z,2.03
2022-11-17T18:24:23.394Z,2.00
2022-11-17T18:26:51.472Z,2.17
2022-11-17T18:29:19.968Z,1.92
2022-11-17T18:31:49.605Z,2.00
2022-11-17T18:34:23.231Z,2.20
2022-11-17T18:36:53.585Z,2.30
2022-11-17T18:39:22.198Z,2.13
2022-11-17T18:41:50.169Z,2.15
2022-11-17T18:44:19.812Z,2.00
2022-11-17T18:46:48.237Z,2.00
2022-11-17T18:49:16.630Z,1.85
2022-11-17T18:51:45.174Z,2.05
2022-11-17T18:54:13.472Z,2.20
2022-11-17T18:56:42.229Z,2.10
2022-11-17T18:59:13.333Z,2.30
2022-11-17T19:01:43.158Z,2.38
2022-11-17T19:04:14.757Z,1.92
2022-11-17T19:06:42.674Z,2.38
2022-11-17T19:09:11.150Z,2.17
2022-11-17T19:11:39.455Z,2.63
2022-11-17T19:14:07.490Z,2.05
2022-11-17T19:16:44.428Z,2.10
2022-11-17T19:19:13.851Z,2.20
2022-11-17T19:21:42.967Z,2.20
2022-11-17T19:24:12.165Z,2.17
2022-11-17T19:26:40.403Z,2.30
2022-11-17T19:29:15.927Z,2.30
2022-11-17T19:31:45.765Z,2.20
2022-11-17T19:34:15.470Z,1.98
2022-11-17T19:36:44.705Z,2.17
2022-11-17T19:39:13.531Z,1.90
2022-11-17T19:41:41.931Z,1.92
2022-11-17T19:44:10.125Z,2.00
2022-11-17T19:46:39.168Z,2.28
2022-11-17T19:49:08.317Z,2.30
2022-11-17T19:51:37.251Z,2.15
2022-11-17T19:54:07.953Z,2.28
2022-11-17T19:56:36.517Z,2.10
2022-11-17T19:59:05.619Z,2.20
2022-11-17T20:01:34.702Z,2.60
2022-11-17T20:04:03.081Z,2.30
2022-11-17T20:06:37.215Z,2.40
2022-11-17T20:09:09.775Z,2.20
2022-11-17T20:11:38.190Z,2.10
2022-11-17T20:14:06.795Z,2.13
2022-11-17T20:16:34.965Z,2.42
2022-11-17T20:19:03.063Z,2.65
2022-11-17T20:21:32.033Z,2.40
2022-11-17T20:24:01.434Z,2.40
2022-11-17T20:26:32.189Z,2.10
2022-11-17T20:29:00.834Z,2.15
2022-11-17T20:31:32.218Z,2.28
2022-11-17T20:34:01.663Z,2.25
2022-11-17T20:36:31.566Z,2.28
2022-11-17T20:39:02.297Z,2.53
2022-11-17T20:41:31.353Z,2.50
2022-11-17T20:44:00.695Z,2.25
2022-11-17T20:46:29.277Z,2.40
2022-11-17T20:48:57.159Z,2.58
2022-11-17T20:51:26.420Z,2.40
2022-11-17T20:53:54.423Z,2.53
2022-11-17T20:56:22.342Z,2.38
2022-11-17T20:58:50.326Z,2.45
2022-11-17T21:01:21.467Z,2.30
2022-11-17T21:03:49.840Z,2.40
2022-11-17T21:06:18.472Z,2.45
2022-11-17T21:08:46.898Z,2.50
2022-11-17T21:11:41.642Z,2.58
2022-11-17T21:14:12.310Z,2.20
2022-11-17T21:16:44.776Z,2.40
2022-11-17T21:19:14.158Z,2.20
2022-11-17T21:21:43.303Z,2.50
2022-11-17T21:24:11.668Z,2.30
2022-11-17T21:26:39.656Z,2.38
2022-11-17T21:29:07.918Z,2.50
2022-11-17T21:31:36.421Z,2.60
2022-11-17T21:34:06.686Z,2.40
2022-11-17T21:36:35.988Z,2.35
2022-11-17T21:39:04.564Z,2.33
2022-11-17T21:41:38.601Z,2.33
2022-11-17T21:44:06.635Z,2.20
2022-11-17T21:46:36.432Z,2.22
2022-11-17T21:49:04.971Z,2.20
2022-11-17T21:51:35.250Z,2.40
2022-11-17T21:54:06.264Z,2.58
2022-11-17T21:56:34.894Z,2.53
2022-11-17T21:59:05.773Z,2.60
2022-11-17T22:01:35.159Z,2.50
2022-11-17T22:04:03.464Z,2.22
2022-11-17T22:06:31.864Z,2.17
2022-11-17T22:09:00.341Z,2.40
2022-11-17T22:11:37.302Z,2.55
2022-11-17T22:14:11.304Z,2.47
2022-11-17T22:16:42.037Z,2.50
2022-11-17T22:19:11.456Z,2.08
2022-11-17T22:21:41.566Z,2.50
2022-11-17T22:24:11.342Z,2.45
2022-11-17T22:26:41.508Z,2.50
2022-11-17T22:29:13.711Z,2.42
2022-11-17T22:31:42.061Z,2.58
2022-11-17T22:34:12.066Z,2.30
2022-11-17T22:36:40.386Z,2.30
2022-11-17T22:39:09.411Z,2.50
2022-11-17T22:41:37.422Z,2.20
2022-11-17T22:44:05.385Z,2.28
2022-11-17T22:46:34.855Z,2.50
2022-11-17T22:49:03.296Z,2.30
2022-11-17T22:51:49.637Z,2.67
2022-11-17T22:54:17.511Z,2.38
2022-11-17T22:56:46.063Z,2.40
2022-11-17T22:59:14.186Z,2.38
2022-11-17T23:01:42.391Z,2.60
2022-11-17T23:04:12.464Z,2.20
2022-11-17T23:06:40.337Z,2.38
2022-11-17T23:09:08.153Z,2.50
2022-11-17T23:11:37.855Z,2.30
2022-11-17T23:14:08.315Z,2.45
2022-11-17T23:16:37.795Z,2.50
2022-11-17T23:19:06.706Z,2.40
2022-11-17T23:21:34.784Z,2.30
2022-11-17T23:24:04.227Z,2.35
2022-11-17T23:26:32.189Z,2.35
2022-11-17T23:29:00.503Z,2.40
2022-11-17T23:31:28.417Z,2.45
2022-11-17T23:33:56.684Z,2.42
2022-11-17T23:36:24.821Z,2.35
2022-11-17T23:38:56.479Z,2.25
2022-11-17T23:41:24.876Z,2.60
2022-11-17T23:43:54.244Z,2.55
2022-11-17T23:46:24.936Z,2.20
2022-11-17T23:48:54.145Z,2.25
2022-11-17T23:51:23.684Z,2.33
2022-11-17T23:53:52.318Z,2.55
2022-11-17T23:56:20.992Z,2.50
2022-11-17T23:58:49.238Z,2.45
